Union Beach, New Jersey
Current Conditions -  °F | °C
As of 4:55 AM on Thursday 23 Oct 2014 (Local Time) from KLDJ Reporting Station
Drizzle Drizzle  
Wind Chill: 56°   Ceiling: 2600
Heat Index: 56°   Visibility: 10mi
Dew Point: 50°   Wind: 13mph
Humidity: 80%   Direction: 10°N
Pressure: 29.73"   Gusts: 21mph
Location:  40.4398°N, 74.1836°W
Report Text: KLDJ 230855Z AUTO 01011G18KT 10SM -DZ BKN026 OVC030 14/10 A2973 RMK AO2 T01360102
Loading
Personal Weather Stations






























Interactive Weather Map
Tropical Storm Tracking
New forecast layout! Learn more

10-Day Weather Forecast

Advertisements
Track Severe Weather on mobile